Aeroporto :
LOGIN :

Iscrizione | Disclaimer

   EN    FR    IT 

 










Sommario :    VFR   VFR Marginale   IFR   IFR Intensivo   IFR Molto Intensivo
Visibilità : 
Base nubi : 
>= 8 km
>= 3000ft
5 / 8 km
1000 / 3000 ft
1500m / 5 km
500 / 1000 ft
800 / 1500m
200 / 500 ft
< 800m
< 200 ft
Simboli :   Temporali  Nebbia  Neve Forte  Precipitazioni Forti  Vento > 20 kt
SIGMETs :   Varie  Temporali  Ghiacco  Turbolenza  Onda orograficha  Ceneri Vulcaniche






- Altitudine del aeroporto : 598 ft
- Codice IATA : BQH


EGKB - Biggin Hill

ULTIMO METAR :
  • 231250Z 11007KT 080V160 9999 SCT013 13/11 Q1012

METARs OBSOLETI :
  • 231220Z 08008KT 040V130 9999 SCT013 13/11 Q1012
  • 231150Z 10010KT 060V140 9000 BKN012 13/11 Q1013
  • 231120Z 09008KT 060V150 9000 SCT011 13/11 Q1013
  • 231050Z 07006KT 040V110 7000 SCT011 12/11 Q1014
  • 231020Z 08005KT 030V110 2500 BR BKN010 09/09 Q1015

TAF AMD TAF EGKB
Valido dal 23 a 12 ore il 23 a 21 ore UTC


231210Z 2312/2321 10010KT 4000 BR BKN010
BECMG 2312/2314 9999 NSW SCT012
TEMPO 2314/2316 4000 RA BKN008
TEMPO 2316/2321 3000 BR BKN004



MetMap, La meteo Aeronautica in un colpo d'occhio ! - Copyright ORBIFLY Dicembre 2007 - Disclaimer

ORBIFLY MET'MAP TEAM :

Programmazione e sviluppo : Alexandra Zaïnal
Concezione e sviluppo : Baudouin d'Aumeries
Co-Programmazione e sviluppo : Marc-Olivier Méhu
Supporto tecnico e logistico : Manuel Goepfert
Aiuto per la traduzione : Arnaldo La Scala

Contatto : metmap@orbifly.com




FONTI E CREDITI :

   NOAA